Portada
METAR-TAF:

METAR-TAF

Aeroports :

Iğdır, Turquia

latitud: 39-58-36N, longitud: 43-52-36E, altitud: 945 m

Observació

L'informe es va fer fa 1 hora i 23 minuts, a les 08:50 UTC
Vent 3 kt amb direcció variable
Temperatura 6°C
Humitat 70%
Pressió 1019 hPa
Visibilitat: 6000 m
Núvols disperses a una alçada de 2000 ft
Cel ennuvolat a una alçada de 7000 ft

METAR: LTCT 210850Z VRB03KT 6000 SCT020 BKN070 06/01 Q1019

Hora: 13:13 (10:13 UTC)

Pronòstic

L'informe es va fer fa 2 hores i 33 minuts, a les 07:40 UTC
Pronòstic vàlid del 21 a les 09 UTC al 21 a les 18 UTC
Vent 2 kt amb direcció variable
Visibilitat: 4500 m
Escasses núvols a una alçada de 1000 ft
Cel ennuvolat a una alçada de 8000 ft
boirina
Evolucionant progressivament
l' 21 a les 09 UTC al 21 a les 11 UTC
Visibilitat: 8000 m

TAF: LTCT 210740Z 2109/2118 VRB02KT 4500 BR FEW010 BKN080 BECMG 2109/2111 8000

Observacions i pronòstics meteorològics de més de 4000 aeroports (METAR i TAF).

Les estacions disponibles són els punts grocs i vermells al mapa.

Posi el ratolí al punt desitjat per veure el nom de l'estació.

Feu clic per veure les observacions i els pronòstics meteorològics.

Per canviar el mapa: feu clic els botons verds amb una creu de color negre per apropar; al botó verd amb un guió per allunyar la imatge; o en les fletxes verdes per a mapes adjacents.


METAR-TAF: